sensor_id;sensor_type;location;lat;lon;timestamp;P1;durP1;ratioP1;P2;durP2;ratioP2
46318;SDS011;32042;50.916;2.926;2023-05-14T00:01:46;31.73;;;22.73;;
46318;SDS011;32042;50.916;2.926;2023-05-14T00:04:12;31.47;;;22.93;;
46318;SDS011;32042;50.916;2.926;2023-05-14T00:06:38;35.83;;;23.10;;
46318;SDS011;32042;50.916;2.926;2023-05-14T00:09:03;38.37;;;24.20;;
46318;SDS011;32042;50.916;2.926;2023-05-14T00:11:29;35.33;;;24.07;;
46318;SDS011;32042;50.916;2.926;2023-05-14T00:13:56;35.83;;;23.40;;
46318;SDS011;32042;50.916;2.926;2023-05-14T00:16:22;32.63;;;23.50;;
46318;SDS011;32042;50.916;2.926;2023-05-14T00:18:48;32.50;;;25.20;;
46318;SDS011;32042;50.916;2.926;2023-05-14T00:21:13;33.03;;;22.60;;
46318;SDS011;32042;50.916;2.926;2023-05-14T00:23:39;36.10;;;23.93;;
46318;SDS011;32042;50.916;2.926;2023-05-14T00:26:05;34.43;;;24.80;;
46318;SDS011;32042;50.916;2.926;2023-05-14T00:28:30;32.00;;;23.57;;
46318;SDS011;32042;50.916;2.926;2023-05-14T00:30:56;39.00;;;22.50;;
46318;SDS011;32042;50.916;2.926;2023-05-14T00:33:22;31.93;;;23.50;;
46318;SDS011;32042;50.916;2.926;2023-05-14T00:35:47;31.33;;;23.73;;
46318;SDS011;32042;50.916;2.926;2023-05-14T00:38:13;34.43;;;23.70;;
46318;SDS011;32042;50.916;2.926;2023-05-14T00:40:43;35.20;;;21.93;;
46318;SDS011;32042;50.916;2.926;2023-05-14T00:43:15;28.20;;;22.23;;
46318;SDS011;32042;50.916;2.926;2023-05-14T00:45:41;30.87;;;23.83;;
46318;SDS011;32042;50.916;2.926;2023-05-14T00:48:07;33.20;;;22.87;;
46318;SDS011;32042;50.916;2.926;2023-05-14T00:50:33;39.53;;;24.73;;
46318;SDS011;32042;50.916;2.926;2023-05-14T00:52:59;38.60;;;25.10;;
46318;SDS011;32042;50.916;2.926;2023-05-14T00:55:25;41.80;;;25.40;;
46318;SDS011;32042;50.916;2.926;2023-05-14T00:57:54;31.30;;;24.70;;
46318;SDS011;32042;50.916;2.926;2023-05-14T01:00:23;31.83;;;24.00;;
46318;SDS011;32042;50.916;2.926;2023-05-14T01:02:48;35.30;;;23.70;;
46318;SDS011;32042;50.916;2.926;2023-05-14T01:05:14;34.53;;;22.63;;
46318;SDS011;32042;50.916;2.926;2023-05-14T01:10:41;32.67;;;22.63;;
46318;SDS011;32042;50.916;2.926;2023-05-14T01:13:26;37.37;;;23.07;;
46318;SDS011;32042;50.916;2.926;2023-05-14T01:16:00;35.10;;;23.40;;
46318;SDS011;32042;50.916;2.926;2023-05-14T01:18:28;34.77;;;25.40;;
46318;SDS011;32042;50.916;2.926;2023-05-14T01:20:56;33.90;;;25.27;;
46318;SDS011;32042;50.916;2.926;2023-05-14T01:23:21;35.93;;;24.33;;
46318;SDS011;32042;50.916;2.926;2023-05-14T01:25:47;39.00;;;24.70;;
46318;SDS011;32042;50.916;2.926;2023-05-14T01:28:17;40.27;;;25.17;;
46318;SDS011;32042;50.916;2.926;2023-05-14T01:30:57;35.77;;;24.43;;
46318;SDS011;32042;50.916;2.926;2023-05-14T01:33:32;30.80;;;23.53;;
46318;SDS011;32042;50.916;2.926;2023-05-14T01:35:59;34.40;;;24.77;;
46318;SDS011;32042;50.916;2.926;2023-05-14T01:38:25;38.73;;;26.20;;
46318;SDS011;32042;50.916;2.926;2023-05-14T01:40:55;32.57;;;25.83;;
46318;SDS011;32042;50.916;2.926;2023-05-14T01:43:22;39.93;;;27.37;;
46318;SDS011;32042;50.916;2.926;2023-05-14T01:45:48;39.47;;;27.87;;
46318;SDS011;32042;50.916;2.926;2023-05-14T01:48:14;40.73;;;29.70;;
46318;SDS011;32042;50.916;2.926;2023-05-14T01:50:40;40.70;;;30.10;;
46318;SDS011;32042;50.916;2.926;2023-05-14T01:53:05;40.10;;;30.10;;
46318;SDS011;32042;50.916;2.926;2023-05-14T01:55:31;35.23;;;28.90;;
46318;SDS011;32042;50.916;2.926;2023-05-14T01:57:57;40.83;;;27.53;;
46318;SDS011;32042;50.916;2.926;2023-05-14T02:00:23;41.77;;;29.77;;
46318;SDS011;32042;50.916;2.926;2023-05-14T02:02:50;34.10;;;26.27;;
46318;SDS011;32042;50.916;2.926;2023-05-14T02:05:15;38.50;;;27.23;;
46318;SDS011;32042;50.916;2.926;2023-05-14T02:07:41;39.63;;;27.77;;
46318;SDS011;32042;50.916;2.926;2023-05-14T02:10:07;42.73;;;28.50;;
46318;SDS011;32042;50.916;2.926;2023-05-14T02:12:33;44.80;;;28.87;;
46318;SDS011;32042;50.916;2.926;2023-05-14T02:14:59;38.30;;;29.33;;
46318;SDS011;32042;50.916;2.926;2023-05-14T02:17:25;51.40;;;30.57;;
46318;SDS011;32042;50.916;2.926;2023-05-14T02:19:51;47.60;;;30.20;;
46318;SDS011;32042;50.916;2.926;2023-05-14T02:22:17;44.37;;;30.97;;
46318;SDS011;32042;50.916;2.926;2023-05-14T02:24:42;43.03;;;31.10;;
46318;SDS011;32042;50.916;2.926;2023-05-14T02:27:08;45.23;;;32.70;;
46318;SDS011;32042;50.916;2.926;2023-05-14T02:29:36;46.70;;;32.13;;
46318;SDS011;32042;50.916;2.926;2023-05-14T02:32:02;48.27;;;31.03;;
46318;SDS011;32042;50.916;2.926;2023-05-14T02:34:29;48.57;;;30.30;;
46318;SDS011;32042;50.916;2.926;2023-05-14T02:36:58;42.47;;;30.60;;
46318;SDS011;32042;50.916;2.926;2023-05-14T02:39:25;48.63;;;32.23;;
46318;SDS011;32042;50.916;2.926;2023-05-14T02:41:52;41.53;;;30.93;;
46318;SDS011;32042;50.916;2.926;2023-05-14T02:44:19;51.07;;;33.37;;
46318;SDS011;32042;50.916;2.926;2023-05-14T02:46:46;46.30;;;32.53;;
46318;SDS011;32042;50.916;2.926;2023-05-14T02:49:12;52.53;;;33.00;;
46318;SDS011;32042;50.916;2.926;2023-05-14T02:51:39;47.10;;;33.00;;
46318;SDS011;32042;50.916;2.926;2023-05-14T02:54:06;48.80;;;31.90;;
46318;SDS011;32042;50.916;2.926;2023-05-14T02:56:31;51.10;;;34.30;;
46318;SDS011;32042;50.916;2.926;2023-05-14T02:58:57;47.00;;;33.43;;
46318;SDS011;32042;50.916;2.926;2023-05-14T03:01:23;47.80;;;33.60;;
46318;SDS011;32042;50.916;2.926;2023-05-14T03:03:48;50.83;;;34.33;;
46318;SDS011;32042;50.916;2.926;2023-05-14T03:06:14;58.43;;;36.13;;
46318;SDS011;32042;50.916;2.926;2023-05-14T03:08:40;54.90;;;36.60;;
46318;SDS011;32042;50.916;2.926;2023-05-14T03:11:06;57.83;;;37.17;;
46318;SDS011;32042;50.916;2.926;2023-05-14T03:13:31;57.40;;;38.30;;
46318;SDS011;32042;50.916;2.926;2023-05-14T03:15:57;62.87;;;40.30;;
46318;SDS011;32042;50.916;2.926;2023-05-14T03:18:23;53.87;;;39.00;;
46318;SDS011;32042;50.916;2.926;2023-05-14T03:20:48;57.40;;;38.40;;
46318;SDS011;32042;50.916;2.926;2023-05-14T03:23:14;59.40;;;39.90;;
46318;SDS011;32042;50.916;2.926;2023-05-14T03:25:40;59.97;;;40.07;;
46318;SDS011;32042;50.916;2.926;2023-05-14T03:28:06;58.43;;;40.87;;
46318;SDS011;32042;50.916;2.926;2023-05-14T03:30:31;62.00;;;40.50;;
46318;SDS011;32042;50.916;2.926;2023-05-14T03:32:57;65.37;;;42.37;;
46318;SDS011;32042;50.916;2.926;2023-05-14T03:35:23;53.87;;;39.93;;
46318;SDS011;32042;50.916;2.926;2023-05-14T03:37:49;58.60;;;39.00;;
46318;SDS011;32042;50.916;2.926;2023-05-14T03:40:17;61.13;;;39.70;;
46318;SDS011;32042;50.916;2.926;2023-05-14T03:42:42;59.43;;;40.37;;
46318;SDS011;32042;50.916;2.926;2023-05-14T03:45:08;66.67;;;42.83;;
46318;SDS011;32042;50.916;2.926;2023-05-14T03:47:34;63.90;;;41.07;;
46318;SDS011;32042;50.916;2.926;2023-05-14T03:50:00;63.70;;;42.13;;
46318;SDS011;32042;50.916;2.926;2023-05-14T03:52:25;63.37;;;41.90;;
46318;SDS011;32042;50.916;2.926;2023-05-14T03:54:51;60.20;;;40.50;;
46318;SDS011;32042;50.916;2.926;2023-05-14T03:57:17;66.90;;;42.17;;
46318;SDS011;32042;50.916;2.926;2023-05-14T03:59:42;68.53;;;41.87;;
46318;SDS011;32042;50.916;2.926;2023-05-14T04:02:08;65.53;;;42.10;;
46318;SDS011;32042;50.916;2.926;2023-05-14T04:04:34;65.87;;;41.83;;
46318;SDS011;32042;50.916;2.926;2023-05-14T04:07:00;61.17;;;38.60;;
46318;SDS011;32042;50.916;2.926;2023-05-14T04:09:25;55.73;;;37.10;;
46318;SDS011;32042;50.916;2.926;2023-05-14T04:11:51;55.27;;;37.67;;
46318;SDS011;32042;50.916;2.926;2023-05-14T04:14:17;55.07;;;38.13;;
46318;SDS011;32042;50.916;2.926;2023-05-14T04:16:42;51.60;;;35.20;;
46318;SDS011;32042;50.916;2.926;2023-05-14T04:19:08;52.60;;;35.10;;
46318;SDS011;32042;50.916;2.926;2023-05-14T04:21:34;50.47;;;31.60;;
46318;SDS011;32042;50.916;2.926;2023-05-14T04:23:59;47.33;;;31.03;;
46318;SDS011;32042;50.916;2.926;2023-05-14T04:26:25;50.10;;;30.73;;
46318;SDS011;32042;50.916;2.926;2023-05-14T04:28:51;43.00;;;30.10;;
46318;SDS011;32042;50.916;2.926;2023-05-14T04:31:16;44.20;;;30.93;;
46318;SDS011;32042;50.916;2.926;2023-05-14T04:33:42;39.87;;;30.43;;
46318;SDS011;32042;50.916;2.926;2023-05-14T04:36:08;44.50;;;31.27;;
46318;SDS011;32042;50.916;2.926;2023-05-14T04:38:34;49.43;;;31.50;;
46318;SDS011;32042;50.916;2.926;2023-05-14T04:40:59;53.60;;;33.33;;
46318;SDS011;32042;50.916;2.926;2023-05-14T04:43:26;50.30;;;33.70;;
46318;SDS011;32042;50.916;2.926;2023-05-14T04:45:51;50.97;;;33.57;;
46318;SDS011;32042;50.916;2.926;2023-05-14T04:48:17;46.90;;;33.17;;
46318;SDS011;32042;50.916;2.926;2023-05-14T04:50:43;52.53;;;33.83;;
46318;SDS011;32042;50.916;2.926;2023-05-14T04:53:09;50.37;;;35.33;;
46318;SDS011;32042;50.916;2.926;2023-05-14T04:55:35;49.37;;;38.57;;
46318;SDS011;32042;50.916;2.926;2023-05-14T04:58:01;49.43;;;36.93;;
46318;SDS011;32042;50.916;2.926;2023-05-14T05:00:27;51.30;;;37.33;;
46318;SDS011;32042;50.916;2.926;2023-05-14T05:02:53;57.97;;;37.13;;
46318;SDS011;32042;50.916;2.926;2023-05-14T05:05:19;54.47;;;38.70;;
46318;SDS011;32042;50.916;2.926;2023-05-14T05:07:45;60.87;;;43.47;;
46318;SDS011;32042;50.916;2.926;2023-05-14T05:10:11;55.63;;;38.30;;
46318;SDS011;32042;50.916;2.926;2023-05-14T05:12:37;56.07;;;38.83;;
46318;SDS011;32042;50.916;2.926;2023-05-14T05:15:03;58.17;;;39.13;;
46318;SDS011;32042;50.916;2.926;2023-05-14T05:17:29;54.10;;;39.73;;
46318;SDS011;32042;50.916;2.926;2023-05-14T05:19:55;53.80;;;37.57;;
46318;SDS011;32042;50.916;2.926;2023-05-14T05:22:21;47.30;;;35.47;;
46318;SDS011;32042;50.916;2.926;2023-05-14T05:24:47;46.50;;;33.50;;
46318;SDS011;32042;50.916;2.926;2023-05-14T05:27:13;42.83;;;30.97;;
46318;SDS011;32042;50.916;2.926;2023-05-14T05:29:39;40.67;;;28.67;;
46318;SDS011;32042;50.916;2.926;2023-05-14T05:32:05;36.60;;;29.00;;
46318;SDS011;32042;50.916;2.926;2023-05-14T05:34:31;38.70;;;28.90;;
46318;SDS011;32042;50.916;2.926;2023-05-14T05:36:57;39.87;;;27.37;;
46318;SDS011;32042;50.916;2.926;2023-05-14T05:39:23;34.43;;;26.40;;
46318;SDS011;32042;50.916;2.926;2023-05-14T05:41:49;37.67;;;26.17;;
46318;SDS011;32042;50.916;2.926;2023-05-14T05:44:15;38.20;;;29.30;;
46318;SDS011;32042;50.916;2.926;2023-05-14T05:46:40;39.07;;;28.43;;
46318;SDS011;32042;50.916;2.926;2023-05-14T05:49:06;38.47;;;27.23;;
46318;SDS011;32042;50.916;2.926;2023-05-14T05:51:32;41.30;;;28.27;;
46318;SDS011;32042;50.916;2.926;2023-05-14T05:53:57;38.63;;;28.60;;
46318;SDS011;32042;50.916;2.926;2023-05-14T05:56:23;43.57;;;29.53;;
46318;SDS011;32042;50.916;2.926;2023-05-14T05:58:49;40.33;;;29.97;;
46318;SDS011;32042;50.916;2.926;2023-05-14T06:01:15;40.73;;;30.40;;
46318;SDS011;32042;50.916;2.926;2023-05-14T06:03:41;43.43;;;30.97;;
46318;SDS011;32042;50.916;2.926;2023-05-14T06:06:06;40.73;;;30.77;;
46318;SDS011;32042;50.916;2.926;2023-05-14T06:08:32;37.60;;;30.47;;
46318;SDS011;32042;50.916;2.926;2023-05-14T06:10:58;42.77;;;32.23;;
46318;SDS011;32042;50.916;2.926;2023-05-14T06:13:24;39.80;;;29.63;;
46318;SDS011;32042;50.916;2.926;2023-05-14T06:15:49;43.37;;;29.37;;
46318;SDS011;32042;50.916;2.926;2023-05-14T06:18:15;42.23;;;31.30;;
46318;SDS011;32042;50.916;2.926;2023-05-14T06:20:41;42.70;;;27.90;;
46318;SDS011;32042;50.916;2.926;2023-05-14T06:23:07;37.53;;;28.93;;
46318;SDS011;32042;50.916;2.926;2023-05-14T06:25:32;42.37;;;27.30;;
46318;SDS011;32042;50.916;2.926;2023-05-14T06:27:59;37.00;;;27.83;;
46318;SDS011;32042;50.916;2.926;2023-05-14T06:30:24;33.17;;;27.97;;
46318;SDS011;32042;50.916;2.926;2023-05-14T06:32:50;35.67;;;28.20;;
46318;SDS011;32042;50.916;2.926;2023-05-14T06:35:16;38.63;;;28.43;;
46318;SDS011;32042;50.916;2.926;2023-05-14T06:37:43;43.20;;;31.07;;
46318;SDS011;32042;50.916;2.926;2023-05-14T06:40:09;40.33;;;28.10;;
46318;SDS011;32042;50.916;2.926;2023-05-14T06:42:36;39.07;;;30.27;;
46318;SDS011;32042;50.916;2.926;2023-05-14T06:45:02;39.70;;;30.87;;
46318;SDS011;32042;50.916;2.926;2023-05-14T06:47:28;40.13;;;32.30;;
46318;SDS011;32042;50.916;2.926;2023-05-14T06:49:54;47.87;;;34.10;;
46318;SDS011;32042;50.916;2.926;2023-05-14T06:52:22;50.17;;;34.17;;
46318;SDS011;32042;50.916;2.926;2023-05-14T06:54:49;45.37;;;32.93;;
46318;SDS011;32042;50.916;2.926;2023-05-14T06:57:15;41.03;;;29.97;;
46318;SDS011;32042;50.916;2.926;2023-05-14T06:59:41;39.57;;;31.20;;
46318;SDS011;32042;50.916;2.926;2023-05-14T07:02:07;42.03;;;28.40;;
46318;SDS011;32042;50.916;2.926;2023-05-14T07:04:32;35.83;;;27.30;;
46318;SDS011;32042;50.916;2.926;2023-05-14T07:06:58;39.63;;;26.97;;
46318;SDS011;32042;50.916;2.926;2023-05-14T07:09:24;38.87;;;26.00;;
46318;SDS011;32042;50.916;2.926;2023-05-14T07:11:50;41.20;;;27.47;;
46318;SDS011;32042;50.916;2.926;2023-05-14T07:14:16;35.20;;;26.97;;
46318;SDS011;32042;50.916;2.926;2023-05-14T07:16:41;36.80;;;27.17;;
46318;SDS011;32042;50.916;2.926;2023-05-14T07:19:07;38.53;;;26.47;;
46318;SDS011;32042;50.916;2.926;2023-05-14T07:21:33;31.50;;;25.83;;
46318;SDS011;32042;50.916;2.926;2023-05-14T07:24:00;37.10;;;26.97;;
46318;SDS011;32042;50.916;2.926;2023-05-14T07:26:26;30.37;;;24.73;;
46318;SDS011;32042;50.916;2.926;2023-05-14T07:28:51;30.67;;;24.53;;
46318;SDS011;32042;50.916;2.926;2023-05-14T07:31:17;33.77;;;25.70;;
46318;SDS011;32042;50.916;2.926;2023-05-14T07:33:43;31.57;;;24.07;;
46318;SDS011;32042;50.916;2.926;2023-05-14T07:36:08;43.73;;;29.00;;
46318;SDS011;32042;50.916;2.926;2023-05-14T07:38:34;36.10;;;26.07;;
46318;SDS011;32042;50.916;2.926;2023-05-14T07:41:00;32.37;;;24.97;;
46318;SDS011;32042;50.916;2.926;2023-05-14T07:43:26;35.27;;;25.87;;
46318;SDS011;32042;50.916;2.926;2023-05-14T07:45:51;48.80;;;30.13;;
46318;SDS011;32042;50.916;2.926;2023-05-14T07:48:17;33.57;;;26.07;;
46318;SDS011;32042;50.916;2.926;2023-05-14T07:50:43;36.80;;;27.73;;
46318;SDS011;32042;50.916;2.926;2023-05-14T07:53:09;37.47;;;27.10;;
46318;SDS011;32042;50.916;2.926;2023-05-14T07:55:35;34.60;;;26.83;;
46318;SDS011;32042;50.916;2.926;2023-05-14T07:58:01;42.27;;;28.23;;
46318;SDS011;32042;50.916;2.926;2023-05-14T08:00:26;32.70;;;27.10;;
46318;SDS011;32042;50.916;2.926;2023-05-14T08:02:53;58.80;;;33.47;;
46318;SDS011;32042;50.916;2.926;2023-05-14T08:05:19;30.67;;;24.93;;
46318;SDS011;32042;50.916;2.926;2023-05-14T08:07:45;34.40;;;25.63;;
46318;SDS011;32042;50.916;2.926;2023-05-14T08:10:11;27.67;;;23.87;;
46318;SDS011;32042;50.916;2.926;2023-05-14T08:12:36;28.33;;;23.00;;
46318;SDS011;32042;50.916;2.926;2023-05-14T08:15:03;24.73;;;21.73;;
46318;SDS011;32042;50.916;2.926;2023-05-14T08:17:31;26.60;;;22.87;;
46318;SDS011;32042;50.916;2.926;2023-05-14T08:19:57;41.10;;;28.70;;
46318;SDS011;32042;50.916;2.926;2023-05-14T08:22:23;32.43;;;24.17;;
46318;SDS011;32042;50.916;2.926;2023-05-14T08:24:48;35.13;;;24.40;;
46318;SDS011;32042;50.916;2.926;2023-05-14T08:27:14;91.90;;;45.73;;
46318;SDS011;32042;50.916;2.926;2023-05-14T08:29:40;33.40;;;24.77;;
46318;SDS011;32042;50.916;2.926;2023-05-14T08:32:07;89.90;;;44.43;;
46318;SDS011;32042;50.916;2.926;2023-05-14T08:34:33;27.73;;;24.27;;
46318;SDS011;32042;50.916;2.926;2023-05-14T08:36:59;25.53;;;22.63;;
46318;SDS011;32042;50.916;2.926;2023-05-14T08:39:26;64.73;;;32.57;;
46318;SDS011;32042;50.916;2.926;2023-05-14T08:41:51;36.87;;;24.50;;
46318;SDS011;32042;50.916;2.926;2023-05-14T08:44:19;53.73;;;33.57;;
46318;SDS011;32042;50.916;2.926;2023-05-14T08:46:54;35.73;;;28.67;;
46318;SDS011;32042;50.916;2.926;2023-05-14T08:49:22;27.27;;;22.60;;
46318;SDS011;32042;50.916;2.926;2023-05-14T08:52:05;27.33;;;23.17;;
46318;SDS011;32042;50.916;2.926;2023-05-14T08:54:32;26.47;;;22.77;;
46318;SDS011;32042;50.916;2.926;2023-05-14T08:56:58;33.33;;;22.23;;
46318;SDS011;32042;50.916;2.926;2023-05-14T08:59:24;31.73;;;23.00;;
46318;SDS011;32042;50.916;2.926;2023-05-14T09:01:53;29.03;;;24.00;;
46318;SDS011;32042;50.916;2.926;2023-05-14T09:04:21;25.53;;;22.37;;
46318;SDS011;32042;50.916;2.926;2023-05-14T09:06:48;30.20;;;24.17;;
46318;SDS011;32042;50.916;2.926;2023-05-14T09:09:16;25.67;;;22.33;;
46318;SDS011;32042;50.916;2.926;2023-05-14T09:11:45;29.70;;;26.03;;
46318;SDS011;32042;50.916;2.926;2023-05-14T09:14:13;25.67;;;21.97;;
46318;SDS011;32042;50.916;2.926;2023-05-14T09:16:39;23.43;;;21.13;;
46318;SDS011;32042;50.916;2.926;2023-05-14T09:19:06;30.33;;;23.10;;
46318;SDS011;32042;50.916;2.926;2023-05-14T09:21:33;27.30;;;21.87;;
46318;SDS011;32042;50.916;2.926;2023-05-14T09:23:59;24.13;;;21.10;;
46318;SDS011;32042;50.916;2.926;2023-05-14T09:26:26;24.30;;;21.50;;
46318;SDS011;32042;50.916;2.926;2023-05-14T09:28:56;24.07;;;21.60;;
46318;SDS011;32042;50.916;2.926;2023-05-14T09:31:29;28.37;;;23.53;;
46318;SDS011;32042;50.916;2.926;2023-05-14T09:33:56;24.97;;;22.40;;
46318;SDS011;32042;50.916;2.926;2023-05-14T09:36:22;25.20;;;22.47;;
46318;SDS011;32042;50.916;2.926;2023-05-14T09:38:52;30.07;;;24.20;;
46318;SDS011;32042;50.916;2.926;2023-05-14T09:41:20;26.10;;;22.83;;
46318;SDS011;32042;50.916;2.926;2023-05-14T09:43:47;30.63;;;23.77;;
46318;SDS011;32042;50.916;2.926;2023-05-14T09:46:13;28.87;;;23.07;;
46318;SDS011;32042;50.916;2.926;2023-05-14T09:48:39;25.90;;;23.27;;
46318;SDS011;32042;50.916;2.926;2023-05-14T09:51:05;25.93;;;23.07;;
46318;SDS011;32042;50.916;2.926;2023-05-14T09:53:31;24.63;;;22.17;;
46318;SDS011;32042;50.916;2.926;2023-05-14T09:55:58;24.33;;;21.47;;
46318;SDS011;32042;50.916;2.926;2023-05-14T09:58:24;28.43;;;22.37;;
46318;SDS011;32042;50.916;2.926;2023-05-14T10:00:50;24.73;;;21.73;;
46318;SDS011;32042;50.916;2.926;2023-05-14T10:03:17;27.67;;;23.27;;
46318;SDS011;32042;50.916;2.926;2023-05-14T10:05:44;27.10;;;22.10;;
46318;SDS011;32042;50.916;2.926;2023-05-14T10:08:13;27.03;;;22.17;;
46318;SDS011;32042;50.916;2.926;2023-05-14T10:10:45;26.55;;;22.33;;
46318;SDS011;32042;50.916;2.926;2023-05-14T10:13:14;25.47;;;22.90;;
46318;SDS011;32042;50.916;2.926;2023-05-14T10:15:46;30.60;;;24.13;;
46318;SDS011;32042;50.916;2.926;2023-05-14T10:18:16;26.73;;;23.73;;
46318;SDS011;32042;50.916;2.926;2023-05-14T10:20:49;26.13;;;23.47;;
46318;SDS011;32042;50.916;2.926;2023-05-14T10:23:30;27.93;;;23.77;;
46318;SDS011;32042;50.916;2.926;2023-05-14T10:25:59;25.13;;;22.53;;
46318;SDS011;32042;50.916;2.926;2023-05-14T10:28:25;25.60;;;20.95;;
46318;SDS011;32042;50.916;2.926;2023-05-14T10:30:52;23.23;;;20.60;;
46318;SDS011;32042;50.916;2.926;2023-05-14T10:33:18;24.67;;;20.47;;
46318;SDS011;32042;50.916;2.926;2023-05-14T10:36:01;25.08;;;20.75;;
46318;SDS011;32042;50.916;2.926;2023-05-14T10:38:31;20.30;;;18.20;;
46318;SDS011;32042;50.916;2.926;2023-05-14T10:40:59;23.52;;;18.90;;
46318;SDS011;32042;50.916;2.926;2023-05-14T10:43:25;22.40;;;19.25;;
46318;SDS011;32042;50.916;2.926;2023-05-14T10:45:55;19.92;;;17.35;;
46318;SDS011;32042;50.916;2.926;2023-05-14T10:48:22;18.20;;;16.40;;
46318;SDS011;32042;50.916;2.926;2023-05-14T10:50:49;19.77;;;16.60;;
46318;SDS011;32042;50.916;2.926;2023-05-14T10:53:16;18.40;;;15.85;;
46318;SDS011;32042;50.916;2.926;2023-05-14T10:55:42;24.10;;;18.92;;
46318;SDS011;32042;50.916;2.926;2023-05-14T10:58:09;18.00;;;16.25;;
46318;SDS011;32042;50.916;2.926;2023-05-14T11:00:35;21.90;;;18.52;;
46318;SDS011;32042;50.916;2.926;2023-05-14T11:03:05;21.20;;;18.73;;
46318;SDS011;32042;50.916;2.926;2023-05-14T11:05:32;24.65;;;21.17;;
46318;SDS011;32042;50.916;2.926;2023-05-14T11:08:01;27.40;;;23.60;;
46318;SDS011;32042;50.916;2.926;2023-05-14T11:10:29;25.65;;;22.63;;
46318;SDS011;32042;50.916;2.926;2023-05-14T11:12:56;26.70;;;22.30;;
46318;SDS011;32042;50.916;2.926;2023-05-14T11:15:23;22.52;;;20.42;;
46318;SDS011;32042;50.916;2.926;2023-05-14T11:17:50;22.33;;;20.10;;
46318;SDS011;32042;50.916;2.926;2023-05-14T11:20:17;27.25;;;19.75;;
46318;SDS011;32042;50.916;2.926;2023-05-14T11:22:44;20.95;;;18.73;;
46318;SDS011;32042;50.916;2.926;2023-05-14T11:25:12;20.95;;;18.77;;
46318;SDS011;32042;50.916;2.926;2023-05-14T11:27:38;23.35;;;19.70;;
46318;SDS011;32042;50.916;2.926;2023-05-14T11:30:11;22.45;;;20.20;;
46318;SDS011;32042;50.916;2.926;2023-05-14T11:32:41;21.65;;;19.30;;
46318;SDS011;32042;50.916;2.926;2023-05-14T11:35:09;22.00;;;19.60;;
46318;SDS011;32042;50.916;2.926;2023-05-14T11:37:35;26.40;;;20.13;;
46318;SDS011;32042;50.916;2.926;2023-05-14T11:40:00;25.05;;;19.83;;
46318;SDS011;32042;50.916;2.926;2023-05-14T11:42:26;20.75;;;18.58;;
46318;SDS011;32042;50.916;2.926;2023-05-14T11:44:52;20.95;;;18.92;;
46318;SDS011;32042;50.916;2.926;2023-05-14T11:47:19;20.92;;;17.98;;
46318;SDS011;32042;50.916;2.926;2023-05-14T11:49:45;19.70;;;17.77;;
46318;SDS011;32042;50.916;2.926;2023-05-14T11:52:13;20.33;;;18.02;;
46318;SDS011;32042;50.916;2.926;2023-05-14T11:54:40;25.08;;;18.77;;
46318;SDS011;32042;50.916;2.926;2023-05-14T11:57:08;20.95;;;18.85;;
46318;SDS011;32042;50.916;2.926;2023-05-14T11:59:35;17.77;;;16.08;;
46318;SDS011;32042;50.916;2.926;2023-05-14T12:02:02;20.65;;;16.45;;
46318;SDS011;32042;50.916;2.926;2023-05-14T12:04:31;18.80;;;16.77;;
46318;SDS011;32042;50.916;2.926;2023-05-14T12:06:57;19.42;;;17.50;;
46318;SDS011;32042;50.916;2.926;2023-05-14T12:09:24;20.33;;;18.17;;
46318;SDS011;32042;50.916;2.926;2023-05-14T12:11:51;20.23;;;15.10;;
46318;SDS011;32042;50.916;2.926;2023-05-14T12:14:20;16.48;;;14.80;;
46318;SDS011;32042;50.916;2.926;2023-05-14T12:16:47;22.65;;;17.90;;
46318;SDS011;32042;50.916;2.926;2023-05-14T12:19:14;23.27;;;15.98;;
46318;SDS011;32042;50.916;2.926;2023-05-14T12:21:46;17.75;;;16.13;;
46318;SDS011;32042;50.916;2.926;2023-05-14T12:24:16;18.48;;;16.13;;
46318;SDS011;32042;50.916;2.926;2023-05-14T12:26:44;17.13;;;15.52;;
46318;SDS011;32042;50.916;2.926;2023-05-14T12:29:14;17.08;;;15.50;;
46318;SDS011;32042;50.916;2.926;2023-05-14T12:31:48;20.50;;;17.02;;
46318;SDS011;32042;50.916;2.926;2023-05-14T12:34:14;18.95;;;14.73;;
46318;SDS011;32042;50.916;2.926;2023-05-14T12:36:41;22.25;;;17.17;;
46318;SDS011;32042;50.916;2.926;2023-05-14T12:39:07;17.90;;;16.15;;
46318;SDS011;32042;50.916;2.926;2023-05-14T12:41:34;17.50;;;15.82;;
46318;SDS011;32042;50.916;2.926;2023-05-14T12:44:01;16.85;;;15.00;;
46318;SDS011;32042;50.916;2.926;2023-05-14T12:46:27;19.02;;;15.43;;
46318;SDS011;32042;50.916;2.926;2023-05-14T12:48:54;16.67;;;15.18;;
46318;SDS011;32042;50.916;2.926;2023-05-14T12:51:20;15.95;;;14.23;;
46318;SDS011;32042;50.916;2.926;2023-05-14T12:53:46;16.40;;;14.85;;
46318;SDS011;32042;50.916;2.926;2023-05-14T12:56:12;16.80;;;13.95;;
46318;SDS011;32042;50.916;2.926;2023-05-14T12:58:38;15.80;;;14.18;;
46318;SDS011;32042;50.916;2.926;2023-05-14T13:01:04;15.00;;;12.95;;
46318;SDS011;32042;50.916;2.926;2023-05-14T13:03:30;18.42;;;12.95;;
46318;SDS011;32042;50.916;2.926;2023-05-14T13:05:56;15.25;;;13.45;;
46318;SDS011;32042;50.916;2.926;2023-05-14T13:08:23;18.63;;;14.48;;
46318;SDS011;32042;50.916;2.926;2023-05-14T13:10:53;15.05;;;13.57;;
46318;SDS011;32042;50.916;2.926;2023-05-14T13:13:19;18.85;;;13.38;;
46318;SDS011;32042;50.916;2.926;2023-05-14T13:15:45;15.00;;;13.55;;
46318;SDS011;32042;50.916;2.926;2023-05-14T13:18:14;14.40;;;12.98;;
46318;SDS011;32042;50.916;2.926;2023-05-14T13:20:43;15.73;;;13.80;;
46318;SDS011;32042;50.916;2.926;2023-05-14T13:23:11;15.27;;;13.70;;
46318;SDS011;32042;50.916;2.926;2023-05-14T13:25:37;18.60;;;13.88;;
46318;SDS011;32042;50.916;2.926;2023-05-14T13:28:03;16.10;;;13.63;;
46318;SDS011;32042;50.916;2.926;2023-05-14T13:30:29;17.80;;;15.18;;
46318;SDS011;32042;50.916;2.926;2023-05-14T13:32:56;15.88;;;14.35;;
46318;SDS011;32042;50.916;2.926;2023-05-14T13:35:22;19.33;;;13.82;;
46318;SDS011;32042;50.916;2.926;2023-05-14T13:37:48;15.82;;;14.15;;
46318;SDS011;32042;50.916;2.926;2023-05-14T13:40:13;15.88;;;14.20;;
46318;SDS011;32042;50.916;2.926;2023-05-14T13:42:39;15.43;;;14.00;;
46318;SDS011;32042;50.916;2.926;2023-05-14T13:45:05;16.92;;;13.90;;
46318;SDS011;32042;50.916;2.926;2023-05-14T13:47:31;14.35;;;13.00;;
46318;SDS011;32042;50.916;2.926;2023-05-14T13:49:57;15.90;;;14.30;;
46318;SDS011;32042;50.916;2.926;2023-05-14T13:52:23;19.10;;;15.10;;
46318;SDS011;32042;50.916;2.926;2023-05-14T13:54:50;17.48;;;15.70;;
46318;SDS011;32042;50.916;2.926;2023-05-14T13:57:17;16.85;;;15.20;;
46318;SDS011;32042;50.916;2.926;2023-05-14T13:59:44;15.63;;;14.00;;
46318;SDS011;32042;50.916;2.926;2023-05-14T14:02:10;16.52;;;14.93;;
46318;SDS011;32042;50.916;2.926;2023-05-14T14:04:36;19.38;;;14.65;;
46318;SDS011;32042;50.916;2.926;2023-05-14T14:07:02;15.30;;;13.80;;
46318;SDS011;32042;50.916;2.926;2023-05-14T14:09:28;15.43;;;13.93;;
46318;SDS011;32042;50.916;2.926;2023-05-14T14:11:59;16.70;;;15.10;;
46318;SDS011;32042;50.916;2.926;2023-05-14T14:14:25;14.63;;;13.43;;
46318;SDS011;32042;50.916;2.926;2023-05-14T14:16:51;15.25;;;13.75;;
46318;SDS011;32042;50.916;2.926;2023-05-14T14:19:17;15.07;;;13.63;;
46318;SDS011;32042;50.916;2.926;2023-05-14T14:21:43;15.60;;;14.02;;